createdAt,value
2019-05-22T00:01:50.281Z,98.65
2019-05-22T00:04:20.628Z,98.68
2019-05-22T00:06:36.335Z,98.71
2019-05-22T00:08:47.667Z,98.78
2019-05-22T00:11:00.378Z,98.77
2019-05-22T00:13:13.119Z,98.78
2019-05-22T00:15:25.969Z,98.83
2019-05-22T00:17:37.197Z,98.90
2019-05-22T00:19:49.932Z,98.89
2019-05-22T00:22:19.306Z,98.83
2019-05-22T00:24:31.645Z,98.87
2019-05-22T00:26:43.186Z,98.92
2019-05-22T00:28:55.812Z,98.93
2019-05-22T00:31:07.680Z,99.11
2019-05-22T00:33:18.883Z,99.15
2019-05-22T00:35:30.733Z,99.16
2019-05-22T00:37:41.555Z,99.14
2019-05-22T00:39:53.698Z,99.19
2019-05-22T00:42:06.423Z,99.24
2019-05-22T00:44:18.808Z,99.27
2019-05-22T00:46:30.006Z,99.25
2019-05-22T00:48:41.162Z,99.23
2019-05-22T00:51:04.755Z,99.20
2019-05-22T00:53:26.489Z,99.15
2019-05-22T00:55:39.248Z,99.11
2019-05-22T00:57:55.957Z,99.10
2019-05-22T01:00:20.811Z,99.06
2019-05-22T01:02:35.443Z,99.07
2019-05-22T01:04:51.211Z,98.99
2019-05-22T01:07:04.349Z,99.08
2019-05-22T01:09:17.999Z,99.21
2019-05-22T01:11:28.951Z,99.33
2019-05-22T01:13:42.204Z,99.47
2019-05-22T01:15:54.944Z,99.36
2019-05-22T01:18:07.272Z,99.16
2019-05-22T01:20:20.692Z,99.23
2019-05-22T01:22:33.327Z,99.33
2019-05-22T01:24:48.071Z,99.27
2019-05-22T01:26:59.333Z,99.22
2019-05-22T01:29:10.758Z,99.17
2019-05-22T01:31:23.495Z,98.98
2019-05-22T01:33:39.976Z,99.06
2019-05-22T01:36:00.726Z,99.14
2019-05-22T01:38:13.047Z,99.14
2019-05-22T01:40:38.705Z,99.20
2019-05-22T01:42:54.182Z,99.21
2019-05-22T01:45:08.326Z,99.16
2019-05-22T01:47:29.124Z,99.13
2019-05-22T01:49:47.217Z,99.16
2019-05-22T01:51:58.963Z,99.09
2019-05-22T01:54:10.889Z,98.80
2019-05-22T01:56:23.634Z,98.68
2019-05-22T01:58:36.663Z,98.68
2019-05-22T02:00:48.612Z,98.56
2019-05-22T02:03:01.667Z,98.64
2019-05-22T02:05:13.919Z,98.56
2019-05-22T02:07:25.657Z,98.57
2019-05-22T02:09:36.890Z,98.53
2019-05-22T02:11:51.554Z,98.56
2019-05-22T02:14:09.238Z,98.55
2019-05-22T02:16:21.300Z,98.66
2019-05-22T02:18:33.930Z,98.70
2019-05-22T02:20:45.682Z,98.68
2019-05-22T02:22:56.853Z,98.41
2019-05-22T02:25:10.730Z,98.37
2019-05-22T02:27:25.619Z,98.45
2019-05-22T02:29:37.253Z,98.58
2019-05-22T02:31:50.096Z,98.64
2019-05-22T02:34:06.154Z,98.69
2019-05-22T02:36:17.254Z,98.74
2019-05-22T02:38:28.653Z,98.33
2019-05-22T02:40:41.180Z,98.21
2019-05-22T02:42:52.720Z,98.13
2019-05-22T02:45:07.750Z,98.00
2019-05-22T02:47:21.580Z,98.00
2019-05-22T02:49:33.110Z,98.11
2019-05-22T02:51:44.756Z,98.19
2019-05-22T02:53:57.296Z,98.41
2019-05-22T02:56:08.109Z,98.49
2019-05-22T02:58:19.461Z,98.26
2019-05-22T03:00:36.943Z,98.06
2019-05-22T03:02:56.678Z,98.07
2019-05-22T03:05:09.193Z,98.11
2019-05-22T03:07:24.003Z,98.09
2019-05-22T03:09:36.838Z,97.94
2019-05-22T03:11:51.495Z,98.02
2019-05-22T03:14:06.436Z,98.11
2019-05-22T03:16:17.757Z,98.27
2019-05-22T03:18:30.476Z,98.31
2019-05-22T03:20:42.913Z,98.32
2019-05-22T03:23:02.247Z,98.29
2019-05-22T03:25:15.082Z,98.15
2019-05-22T03:27:41.944Z,98.20
2019-05-22T03:29:54.571Z,98.33
2019-05-22T03:32:05.425Z,98.42
2019-05-22T03:34:16.720Z,98.57
2019-05-22T03:36:27.525Z,98.62
2019-05-22T03:38:39.392Z,98.39
2019-05-22T03:40:51.533Z,98.26
2019-05-22T03:43:13.019Z,97.98
2019-05-22T03:45:24.531Z,97.85
2019-05-22T03:47:35.460Z,97.67
2019-05-22T03:49:48.196Z,97.72
2019-05-22T03:51:59.148Z,97.71
2019-05-22T03:54:10.192Z,97.64
2019-05-22T03:56:21.561Z,97.72
2019-05-22T03:58:32.698Z,97.71
2019-05-22T04:00:44.532Z,97.73
2019-05-22T04:02:56.040Z,97.42
2019-05-22T04:05:08.775Z,97.52
2019-05-22T04:07:23.360Z,97.37
2019-05-22T04:09:34.216Z,97.16
2019-05-22T04:11:45.846Z,97.21
2019-05-22T04:13:57.659Z,97.32
2019-05-22T04:16:10.969Z,97.45
2019-05-22T04:18:23.195Z,97.39
2019-05-22T04:20:34.432Z,97.54
2019-05-22T04:22:45.778Z,97.70
2019-05-22T04:24:56.820Z,97.77
2019-05-22T04:27:08.025Z,97.72
2019-05-22T04:29:19.567Z,97.77
2019-05-22T04:31:43.787Z,97.72
2019-05-22T04:33:55.225Z,97.88
2019-05-22T04:36:10.052Z,98.15
2019-05-22T04:38:21.153Z,96.43
2019-05-22T04:40:40.506Z,95.65
2019-05-22T04:42:52.024Z,95.74
2019-05-22T04:45:15.294Z,96.05
2019-05-22T04:47:26.137Z,96.31
2019-05-22T04:49:36.977Z,96.49
2019-05-22T04:51:48.193Z,96.59
2019-05-22T04:54:01.035Z,96.62
2019-05-22T04:56:11.891Z,96.81
2019-05-22T04:58:27.172Z,97.01
2019-05-22T05:00:38.019Z,96.59
2019-05-22T05:02:49.072Z,96.63
2019-05-22T05:05:00.891Z,96.71
2019-05-22T05:07:12.481Z,96.69
2019-05-22T05:09:23.911Z,96.87
2019-05-22T05:11:35.071Z,96.49
2019-05-22T05:13:45.891Z,96.01
2019-05-22T05:15:56.860Z,96.09
2019-05-22T05:18:07.784Z,96.17
2019-05-22T05:20:22.343Z,96.16
2019-05-22T05:22:43.006Z,96.31
2019-05-22T05:24:55.855Z,96.30
2019-05-22T05:27:07.623Z,95.88
2019-05-22T05:29:26.122Z,95.81
2019-05-22T05:31:37.160Z,96.03
2019-05-22T05:33:54.928Z,95.59
2019-05-22T05:36:06.576Z,95.71
2019-05-22T05:38:21.262Z,95.87
2019-05-22T05:40:39.812Z,95.95
2019-05-22T05:42:50.714Z,95.86
2019-05-22T05:45:01.734Z,95.77
2019-05-22T05:47:14.467Z,95.68
2019-05-22T05:49:27.683Z,95.58
2019-05-22T05:51:39.728Z,95.26
2019-05-22T05:53:54.345Z,95.10
2019-05-22T05:56:13.003Z,94.82
2019-05-22T05:58:27.910Z,95.05
2019-05-22T06:00:44.448Z,94.94
2019-05-22T06:03:14.112Z,94.92
2019-05-22T06:05:25.552Z,95.00
2019-05-22T06:07:36.778Z,94.90
2019-05-22T06:09:51.406Z,94.98
2019-05-22T06:12:05.663Z,95.08
2019-05-22T06:14:18.806Z,94.59
2019-05-22T06:16:35.368Z,94.29
2019-05-22T06:18:46.821Z,94.54
2019-05-22T06:21:03.858Z,94.29
2019-05-22T06:23:29.130Z,93.96
2019-05-22T06:25:41.843Z,94.04
2019-05-22T06:27:55.039Z,94.20
2019-05-22T06:30:07.750Z,94.45
2019-05-22T06:32:31.979Z,94.11
2019-05-22T06:34:43.345Z,93.80
2019-05-22T06:36:56.191Z,93.90
2019-05-22T06:39:09.125Z,93.63
2019-05-22T06:41:22.117Z,93.39
2019-05-22T06:43:39.576Z,93.01
2019-05-22T06:45:53.707Z,92.86
2019-05-22T06:48:04.935Z,92.99
2019-05-22T06:50:17.795Z,93.04
2019-05-22T06:52:28.628Z,93.00
2019-05-22T06:54:39.572Z,93.38
2019-05-22T06:56:50.691Z,93.43
2019-05-22T06:59:01.515Z,93.00
2019-05-22T07:01:12.359Z,93.14
2019-05-22T07:03:23.633Z,92.73
2019-05-22T07:05:35.172Z,92.84
2019-05-22T07:07:46.096Z,91.65
2019-05-22T07:09:57.638Z,91.87
2019-05-22T07:12:10.037Z,91.75
2019-05-22T07:14:21.785Z,91.86
2019-05-22T07:16:33.632Z,91.75
2019-05-22T07:18:48.280Z,91.71
2019-05-22T07:20:59.234Z,90.05
2019-05-22T07:23:14.546Z,89.71
2019-05-22T07:25:27.486Z,89.61
2019-05-22T07:27:39.209Z,89.28
2019-05-22T07:29:50.146Z,88.64
2019-05-22T07:32:02.303Z,88.34
2019-05-22T07:34:14.021Z,88.26
2019-05-22T07:36:28.588Z,87.48
2019-05-22T07:38:40.019Z,87.45
2019-05-22T07:40:51.720Z,86.67
2019-05-22T07:43:03.676Z,87.24
2019-05-22T07:45:14.717Z,86.74
2019-05-22T07:47:26.249Z,87.10
2019-05-22T07:49:37.475Z,87.24
2019-05-22T07:51:57.050Z,86.03
2019-05-22T07:54:03.453Z,85.34
2019-05-22T07:56:14.981Z,86.21
2019-05-22T07:58:27.204Z,85.73
2019-05-22T08:00:42.094Z,86.24
2019-05-22T08:02:52.929Z,85.99
2019-05-22T08:05:06.548Z,84.78
2019-05-22T08:07:19.496Z,85.46
2019-05-22T08:09:30.318Z,84.90
2019-05-22T08:11:41.551Z,85.00
2019-05-22T08:13:52.585Z,84.02
2019-05-22T08:16:03.912Z,84.84
2019-05-22T08:18:15.344Z,84.75
2019-05-22T08:20:26.610Z,84.32
2019-05-22T08:22:38.166Z,84.49
2019-05-22T08:24:50.888Z,84.70
2019-05-22T08:27:02.610Z,85.11
2019-05-22T08:29:13.985Z,85.63
2019-05-22T08:31:25.412Z,85.68
2019-05-22T08:33:37.063Z,85.63
2019-05-22T08:35:48.478Z,85.94
2019-05-22T08:37:59.849Z,85.16
2019-05-22T08:40:12.304Z,84.67
2019-05-22T08:42:25.397Z,85.04
2019-05-22T08:44:37.364Z,84.79
2019-05-22T08:46:48.827Z,84.93
2019-05-22T08:48:59.756Z,84.84
2019-05-22T08:51:11.646Z,85.06
2019-05-22T08:53:23.094Z,83.09
2019-05-22T08:55:34.797Z,84.46
2019-05-22T08:57:46.257Z,84.47
2019-05-22T08:59:57.275Z,84.11
2019-05-22T09:02:10.094Z,84.66
2019-05-22T09:04:21.043Z,84.79
2019-05-22T09:06:32.067Z,85.10
2019-05-22T09:08:43.021Z,85.05
2019-05-22T09:10:53.949Z,84.12
2019-05-22T09:13:04.852Z,84.41
2019-05-22T09:15:15.892Z,83.97
2019-05-22T09:17:26.942Z,84.36
2019-05-22T09:19:37.864Z,84.47
2019-05-22T09:21:48.813Z,84.97
2019-05-22T09:24:00.860Z,83.06
2019-05-22T09:26:12.044Z,83.55
2019-05-22T09:28:22.990Z,82.71
2019-05-22T09:30:33.834Z,83.38
2019-05-22T09:32:49.960Z,83.96
2019-05-22T09:35:00.833Z,81.49
2019-05-22T09:37:11.858Z,82.67
2019-05-22T09:39:22.791Z,82.78
2019-05-22T09:41:34.418Z,82.67
2019-05-22T09:43:45.506Z,82.01
2019-05-22T09:45:56.428Z,81.55
2019-05-22T09:48:07.370Z,82.73
2019-05-22T09:50:20.322Z,82.65
2019-05-22T09:52:31.665Z,82.87
2019-05-22T09:54:42.520Z,83.18
2019-05-22T09:56:53.733Z,83.60
2019-05-22T09:59:04.573Z,83.57
2019-05-22T10:01:15.924Z,83.55
2019-05-22T10:03:27.070Z,83.67
2019-05-22T10:05:39.894Z,83.78
2019-05-22T10:08:00.630Z,82.94
2019-05-22T10:10:05.455Z,83.05
2019-05-22T10:12:16.810Z,82.65
2019-05-22T10:14:27.758Z,82.29
2019-05-22T10:16:38.669Z,81.00
2019-05-22T10:18:53.004Z,81.92
2019-05-22T10:21:02.870Z,81.10
2019-05-22T10:23:16.114Z,81.38
2019-05-22T10:25:27.827Z,81.43
2019-05-22T10:27:38.767Z,82.57
2019-05-22T10:29:49.606Z,81.93
2019-05-22T10:32:00.752Z,81.38
2019-05-22T10:34:11.979Z,81.28
2019-05-22T10:36:23.169Z,82.05
2019-05-22T10:38:34.659Z,82.43
2019-05-22T10:40:46.029Z,82.77
2019-05-22T10:42:56.877Z,83.27
2019-05-22T10:45:08.712Z,83.56
2019-05-22T10:47:19.782Z,82.78
2019-05-22T10:49:30.908Z,82.19
2019-05-22T10:51:41.883Z,82.10
2019-05-22T10:53:52.821Z,81.45
2019-05-22T10:56:03.938Z,81.09
2019-05-22T10:58:14.909Z,81.17
2019-05-22T11:00:26.310Z,81.41
2019-05-22T11:02:37.202Z,82.20
2019-05-22T11:04:48.044Z,82.13
2019-05-22T11:06:59.870Z,82.07
2019-05-22T11:09:11.138Z,81.82
2019-05-22T11:11:22.103Z,82.49
2019-05-22T11:13:34.576Z,81.93
2019-05-22T11:15:45.705Z,82.14
2019-05-22T11:17:56.832Z,81.06
2019-05-22T11:20:08.772Z,80.67
2019-05-22T11:22:19.720Z,80.67
2019-05-22T11:24:30.634Z,79.81
2019-05-22T11:26:41.845Z,79.39
2019-05-22T11:28:52.739Z,78.79
2019-05-22T11:31:06.263Z,79.16
2019-05-22T11:33:17.293Z,79.15
2019-05-22T11:35:28.330Z,79.50
2019-05-22T11:37:39.258Z,81.21
2019-05-22T11:39:50.380Z,80.26
2019-05-22T11:42:01.230Z,80.46
2019-05-22T11:44:12.470Z,79.49
2019-05-22T11:46:24.051Z,80.10
2019-05-22T11:48:34.985Z,80.23
2019-05-22T11:50:46.348Z,79.75
2019-05-22T11:52:57.469Z,79.80
2019-05-22T11:55:10.830Z,79.64
2019-05-22T11:57:22.189Z,78.37
2019-05-22T11:59:34.622Z,78.77
2019-05-22T12:01:45.988Z,78.66
2019-05-22T12:03:57.716Z,78.02
2019-05-22T12:06:08.949Z,78.67
2019-05-22T12:08:20.637Z,76.68
2019-05-22T12:10:31.882Z,76.55
2019-05-22T12:12:43.917Z,77.76
2019-05-22T12:14:54.906Z,78.30
2019-05-22T12:17:07.053Z,77.67
2019-05-22T12:19:17.981Z,78.40
2019-05-22T12:21:29.241Z,79.81
2019-05-22T12:23:40.077Z,78.95
2019-05-22T12:25:50.933Z,78.01
2019-05-22T12:28:02.696Z,78.23
2019-05-22T12:30:13.906Z,77.01
2019-05-22T12:32:27.237Z,77.18
2019-05-22T12:34:38.481Z,77.63
2019-05-22T12:36:51.557Z,76.00
2019-05-22T12:39:05.302Z,75.49
2019-05-22T12:41:16.977Z,73.58
2019-05-22T12:43:28.649Z,74.21
2019-05-22T12:45:40.206Z,72.43
2019-05-22T12:47:52.136Z,75.30
2019-05-22T12:50:06.462Z,75.12
2019-05-22T12:52:18.674Z,73.01
2019-05-22T12:54:45.265Z,72.05
2019-05-22T12:56:42.330Z,72.18
2019-05-22T12:58:54.414Z,71.64
2019-05-22T13:01:05.463Z,71.95
2019-05-22T13:03:17.409Z,71.52
2019-05-22T13:05:29.407Z,69.98
2019-05-22T13:07:42.391Z,69.24
2019-05-22T13:09:53.393Z,69.41
2019-05-22T13:12:04.829Z,70.44
2019-05-22T13:14:15.762Z,70.54
2019-05-22T13:16:27.786Z,70.12
2019-05-22T13:18:38.926Z,71.20
2019-05-22T13:20:50.053Z,70.14
2019-05-22T13:23:02.742Z,68.39
2019-05-22T13:25:14.749Z,67.89
2019-05-22T13:27:27.535Z,65.61
2019-05-22T13:29:38.645Z,66.42
2019-05-22T13:31:50.777Z,65.96
2019-05-22T13:34:04.066Z,64.79
2019-05-22T13:36:16.396Z,67.61
2019-05-22T13:38:27.331Z,66.94
2019-05-22T13:40:38.461Z,66.91
2019-05-22T13:42:49.810Z,65.67
2019-05-22T13:45:01.529Z,66.36
2019-05-22T13:47:13.466Z,65.34
2019-05-22T13:49:25.922Z,65.34
2019-05-22T13:51:38.164Z,66.05
2019-05-22T13:53:49.909Z,66.95
2019-05-22T13:56:01.041Z,66.72
2019-05-22T13:58:11.911Z,67.07
2019-05-22T14:00:24.168Z,66.11
2019-05-22T14:02:35.185Z,67.42
2019-05-22T14:04:46.238Z,67.30
2019-05-22T14:06:59.167Z,67.24
2019-05-22T14:09:13.135Z,67.70
2019-05-22T14:11:24.257Z,65.35
2019-05-22T14:13:35.578Z,64.90
2019-05-22T14:15:54.518Z,63.34
2019-05-22T14:17:59.655Z,64.63
2019-05-22T14:20:11.607Z,65.42
2019-05-22T14:22:23.561Z,66.65
2019-05-22T14:24:34.546Z,64.89
2019-05-22T14:26:45.887Z,62.20
2019-05-22T14:28:57.002Z,63.21
2019-05-22T14:31:08.660Z,63.25
2019-05-22T14:33:19.606Z,64.12
2019-05-22T14:35:47.009Z,61.08
2019-05-22T14:37:44.406Z,63.71
2019-05-22T14:39:55.388Z,64.45
2019-05-22T14:42:07.541Z,64.34
2019-05-22T14:44:18.780Z,64.43
2019-05-22T14:46:29.738Z,62.97
2019-05-22T14:48:40.727Z,59.07
2019-05-22T14:50:51.712Z,60.34
2019-05-22T14:53:03.027Z,60.73
2019-05-22T14:55:14.651Z,60.33
2019-05-22T14:57:26.045Z,60.08
2019-05-22T14:59:37.081Z,62.36
2019-05-22T15:01:48.199Z,64.60
2019-05-22T15:03:59.422Z,62.03
2019-05-22T15:06:10.490Z,60.98
2019-05-22T15:08:21.900Z,61.68
2019-05-22T15:10:34.072Z,61.27
2019-05-22T15:12:45.515Z,60.33
2019-05-22T15:14:56.514Z,60.60
2019-05-22T15:17:08.177Z,60.91
2019-05-22T15:19:19.704Z,61.93
2019-05-22T15:21:31.385Z,62.98
2019-05-22T15:23:42.918Z,59.24
2019-05-22T15:25:54.167Z,59.81
2019-05-22T15:28:06.520Z,60.15
2019-05-22T15:30:17.740Z,59.15
2019-05-22T15:32:28.758Z,61.83
2019-05-22T15:34:39.776Z,62.11
2019-05-22T15:36:50.934Z,61.89
2019-05-22T15:39:02.646Z,60.81
2019-05-22T15:41:13.798Z,61.75
2019-05-22T15:43:26.473Z,61.98
2019-05-22T15:45:37.677Z,60.87
2019-05-22T15:47:55.120Z,62.99
2019-05-22T15:50:07.259Z,61.92
2019-05-22T15:52:21.117Z,61.32
2019-05-22T15:54:32.911Z,61.34
2019-05-22T15:56:45.676Z,61.88
2019-05-22T15:58:57.346Z,61.28
2019-05-22T16:01:09.374Z,62.32
2019-05-22T16:03:24.129Z,62.02
2019-05-22T16:05:36.437Z,61.55
2019-05-22T16:07:49.689Z,61.27
2019-05-22T16:10:00.517Z,61.93
2019-05-22T16:12:13.424Z,61.49
2019-05-22T16:14:26.794Z,62.61
2019-05-22T16:16:38.100Z,59.88
2019-05-22T16:18:51.761Z,60.34
2019-05-22T16:21:04.892Z,61.06
2019-05-22T16:23:16.124Z,60.73
2019-05-22T16:25:27.160Z,60.40
2019-05-22T16:27:39.600Z,61.52
2019-05-22T16:29:50.729Z,59.78
2019-05-22T16:32:03.571Z,60.03
2019-05-22T16:34:14.724Z,61.44
2019-05-22T16:36:25.885Z,60.62
2019-05-22T16:38:37.673Z,60.75
2019-05-22T16:40:49.566Z,61.11
2019-05-22T16:43:00.940Z,60.52
2019-05-22T16:45:13.200Z,61.78
2019-05-22T16:47:25.088Z,61.55
2019-05-22T16:49:37.941Z,61.44
2019-05-22T16:51:48.872Z,63.07
2019-05-22T16:54:00.548Z,62.13
2019-05-22T16:56:11.463Z,58.43
2019-05-22T16:58:22.321Z,59.92
2019-05-22T17:00:33.963Z,57.80
2019-05-22T17:02:46.623Z,57.81
2019-05-22T17:04:57.809Z,57.57
2019-05-22T17:07:10.201Z,58.21
2019-05-22T17:09:21.783Z,57.78
2019-05-22T17:11:32.706Z,57.44
2019-05-22T17:13:44.245Z,56.51
2019-05-22T17:15:55.501Z,55.53
2019-05-22T17:18:07.825Z,55.90
2019-05-22T17:20:21.094Z,55.70
2019-05-22T17:22:33.849Z,55.15
2019-05-22T17:24:44.922Z,56.03
2019-05-22T17:26:56.659Z,56.79
2019-05-22T17:29:09.406Z,55.70
2019-05-22T17:31:21.938Z,56.48
2019-05-22T17:33:33.158Z,57.28
2019-05-22T17:35:45.236Z,57.52
2019-05-22T17:37:56.606Z,57.33
2019-05-22T17:40:09.860Z,57.69
2019-05-22T17:42:24.221Z,58.85
2019-05-22T17:44:37.427Z,57.14
2019-05-22T17:46:48.391Z,58.28
2019-05-22T17:48:59.806Z,58.57
2019-05-22T17:51:11.157Z,59.25
2019-05-22T17:53:22.496Z,59.05
2019-05-22T17:55:33.858Z,59.36
2019-05-22T17:57:45.893Z,58.84
2019-05-22T17:59:56.967Z,56.92
2019-05-22T18:02:09.920Z,57.05
2019-05-22T18:04:21.149Z,54.60
2019-05-22T18:06:32.338Z,55.85
2019-05-22T18:08:43.572Z,56.63
2019-05-22T18:10:55.643Z,57.44
2019-05-22T18:13:07.091Z,57.73
2019-05-22T18:15:18.514Z,57.90
2019-05-22T18:17:29.435Z,58.94
2019-05-22T18:19:40.868Z,59.56
2019-05-22T18:21:52.340Z,59.47
2019-05-22T18:24:04.652Z,59.69
2019-05-22T18:26:16.400Z,59.51
2019-05-22T18:28:27.345Z,60.20
2019-05-22T18:30:40.257Z,60.38
2019-05-22T18:32:51.199Z,61.14
2019-05-22T18:35:03.339Z,61.95
2019-05-22T18:37:14.206Z,62.44
2019-05-22T18:39:25.901Z,63.32
2019-05-22T18:41:36.865Z,63.30
2019-05-22T18:43:47.926Z,63.48
2019-05-22T18:45:58.801Z,65.27
2019-05-22T18:48:10.090Z,65.54
2019-05-22T18:50:21.097Z,65.07
2019-05-22T18:52:40.996Z,64.69
2019-05-22T18:54:44.921Z,64.60
2019-05-22T18:56:55.777Z,64.55
2019-05-22T18:59:06.713Z,64.51
2019-05-22T19:01:18.072Z,64.59
2019-05-22T19:03:29.096Z,64.92
2019-05-22T19:05:40.520Z,65.20
2019-05-22T19:07:51.360Z,66.74
2019-05-22T19:10:04.205Z,67.83
2019-05-22T19:12:15.565Z,70.12
2019-05-22T19:14:26.811Z,71.26
2019-05-22T19:16:37.883Z,71.91
2019-05-22T19:18:48.952Z,73.39
2019-05-22T19:20:59.902Z,73.50
2019-05-22T19:23:10.954Z,73.91
2019-05-22T19:25:21.885Z,74.14
2019-05-22T19:27:33.547Z,75.08
2019-05-22T19:29:44.378Z,75.43
2019-05-22T19:31:55.419Z,75.74
2019-05-22T19:34:06.500Z,75.70
2019-05-22T19:36:17.690Z,75.86
2019-05-22T19:38:28.713Z,75.91
2019-05-22T19:40:39.545Z,76.26
2019-05-22T19:42:50.525Z,76.85
2019-05-22T19:45:04.018Z,77.15
2019-05-22T19:47:14.872Z,77.42
2019-05-22T19:49:26.067Z,77.59
2019-05-22T19:51:37.050Z,77.71
2019-05-22T19:53:48.174Z,78.50
2019-05-22T19:55:59.090Z,78.40
2019-05-22T19:58:11.851Z,78.57
2019-05-22T20:00:23.913Z,78.76
2019-05-22T20:02:34.908Z,78.95
2019-05-22T20:04:45.960Z,79.24
2019-05-22T20:06:57.482Z,79.91
2019-05-22T20:09:09.389Z,80.38
2019-05-22T20:11:20.737Z,80.40
2019-05-22T20:13:32.892Z,80.27
2019-05-22T20:15:43.746Z,80.30
2019-05-22T20:17:55.530Z,80.61
2019-05-22T20:20:07.277Z,80.99
2019-05-22T20:22:18.442Z,80.69
2019-05-22T20:24:30.033Z,80.77
2019-05-22T20:26:41.366Z,81.25
2019-05-22T20:28:53.360Z,81.36
2019-05-22T20:31:04.847Z,81.56
2019-05-22T20:33:16.218Z,81.71
2019-05-22T20:35:27.286Z,82.11
2019-05-22T20:37:38.541Z,82.16
2019-05-22T20:39:49.490Z,81.91
2019-05-22T20:42:00.925Z,81.86
2019-05-22T20:44:12.042Z,82.21
2019-05-22T20:46:22.865Z,82.45
2019-05-22T20:48:34.514Z,82.70
2019-05-22T20:50:45.470Z,82.73
2019-05-22T20:52:56.390Z,82.87
2019-05-22T20:55:08.872Z,82.57
2019-05-22T20:57:20.682Z,82.42
2019-05-22T20:59:33.409Z,82.33
2019-05-22T21:01:45.667Z,82.11
2019-05-22T21:03:59.043Z,81.93
2019-05-22T21:06:12.560Z,82.10
2019-05-22T21:08:24.492Z,82.05
2019-05-22T21:10:36.080Z,81.93
2019-05-22T21:12:48.060Z,81.72
2019-05-22T21:14:59.369Z,81.56
2019-05-22T21:17:10.759Z,81.58
2019-05-22T21:19:23.776Z,81.60
2019-05-22T21:21:35.033Z,81.83
2019-05-22T21:23:45.988Z,81.94
2019-05-22T21:25:57.473Z,81.97
2019-05-22T21:28:09.145Z,82.25
2019-05-22T21:30:20.621Z,82.28
2019-05-22T21:32:32.044Z,82.66
2019-05-22T21:34:43.413Z,82.81
2019-05-22T21:36:54.420Z,82.83
2019-05-22T21:39:09.915Z,83.19
2019-05-22T21:41:21.769Z,83.32
2019-05-22T21:43:32.717Z,83.76
2019-05-22T21:45:43.847Z,84.17
2019-05-22T21:47:55.492Z,84.18
2019-05-22T21:50:09.356Z,84.50
2019-05-22T21:52:20.609Z,84.80
2019-05-22T21:54:31.935Z,85.36
2019-05-22T21:56:44.786Z,85.70
2019-05-22T21:58:56.855Z,85.69
2019-05-22T22:01:10.404Z,85.74
2019-05-22T22:03:25.597Z,85.42
2019-05-22T22:05:39.236Z,85.49
2019-05-22T22:07:50.165Z,85.42
2019-05-22T22:10:01.900Z,85.54
2019-05-22T22:12:16.468Z,85.75
2019-05-22T22:14:27.820Z,86.01
2019-05-22T22:16:40.480Z,86.26
2019-05-22T22:18:52.734Z,86.41
2019-05-22T22:21:03.881Z,86.16
2019-05-22T22:23:18.644Z,85.94
2019-05-22T22:25:30.785Z,85.80
2019-05-22T22:27:42.567Z,86.04
2019-05-22T22:29:53.819Z,85.92
2019-05-22T22:32:10.460Z,85.72
2019-05-22T22:34:23.635Z,85.69
2019-05-22T22:36:35.144Z,85.74
2019-05-22T22:38:46.409Z,85.80
2019-05-22T22:40:59.170Z,85.54
2019-05-22T22:43:11.825Z,85.65
2019-05-22T22:45:42.686Z,85.30
2019-05-22T22:47:54.014Z,85.54
2019-05-22T22:50:07.147Z,85.57
2019-05-22T22:52:18.685Z,85.61
2019-05-22T22:54:29.934Z,85.58
2019-05-22T22:56:41.355Z,85.58
2019-05-22T22:58:52.794Z,85.41
2019-05-22T23:01:07.168Z,85.30
2019-05-22T23:03:21.182Z,85.53
2019-05-22T23:05:33.533Z,85.63
2019-05-22T23:07:46.940Z,85.62
2019-05-22T23:09:58.875Z,85.61
2019-05-22T23:12:11.819Z,85.55
2019-05-22T23:14:26.704Z,85.44
2019-05-22T23:19:15.113Z,85.62
2019-05-22T23:21:26.134Z,85.21
2019-05-22T23:23:37.153Z,85.56
2019-05-22T23:25:48.901Z,85.78
2019-05-22T23:28:01.637Z,85.85
2019-05-22T23:30:13.081Z,85.98
2019-05-22T23:32:25.108Z,85.59
2019-05-22T23:34:36.258Z,85.65
2019-05-22T23:36:47.729Z,85.68
2019-05-22T23:38:59.944Z,85.61
2019-05-22T23:41:11.399Z,85.58
2019-05-22T23:43:22.329Z,85.48
2019-05-22T23:45:34.672Z,85.34
2019-05-22T23:48:01.317Z,85.55
2019-05-22T23:50:12.957Z,86.13
2019-05-22T23:52:24.084Z,86.69
2019-05-22T23:54:35.399Z,87.00
2019-05-22T23:56:48.960Z,87.17
2019-05-22T23:59:00.892Z,87.19
